createdAt,value
2023-04-21T00:01:59.249Z,99.90
2023-04-21T00:04:26.747Z,99.90
2023-04-21T00:06:54.552Z,99.90
2023-04-21T00:09:22.811Z,99.90
2023-04-21T00:11:49.766Z,99.90
2023-04-21T00:14:16.728Z,99.90
2023-04-21T00:16:43.719Z,99.90
2023-04-21T00:19:11.014Z,99.90
2023-04-21T00:21:37.892Z,99.90
2023-04-21T00:24:05.515Z,99.90
2023-04-21T00:26:32.484Z,99.90
2023-04-21T00:28:59.372Z,99.90
2023-04-21T00:31:26.396Z,99.90
2023-04-21T00:33:53.936Z,99.90
2023-04-21T00:36:20.809Z,99.90
2023-04-21T00:38:47.710Z,99.90
2023-04-21T00:41:14.621Z,99.90
2023-04-21T00:44:01.754Z,99.90
2023-04-21T00:46:29.714Z,99.90
2023-04-21T00:48:58.050Z,99.90
2023-04-21T00:51:27.110Z,99.90
2023-04-21T00:53:55.870Z,99.90
2023-04-21T00:56:22.842Z,99.90
2023-04-21T00:58:50.595Z,99.90
2023-04-21T01:01:17.590Z,99.90
2023-04-21T01:03:45.645Z,99.90
2023-04-21T01:06:12.808Z,99.90
2023-04-21T01:08:39.873Z,99.90
2023-04-21T01:11:13.880Z,99.90
2023-04-21T01:13:41.399Z,99.90
2023-04-21T01:16:08.337Z,99.90
2023-04-21T01:18:36.981Z,99.90
2023-04-21T01:21:04.754Z,99.90
2023-04-21T01:23:31.724Z,99.90
2023-04-21T01:25:58.700Z,99.90
2023-04-21T01:28:26.661Z,99.90
2023-04-21T01:30:53.810Z,99.90
2023-04-21T01:33:21.415Z,99.90
2023-04-21T01:35:48.544Z,99.90
2023-04-21T01:38:19.533Z,99.90
2023-04-21T01:40:52.118Z,99.90
2023-04-21T01:43:22.209Z,99.90
2023-04-21T01:45:49.220Z,99.90
2023-04-21T01:48:16.237Z,99.90
2023-04-21T01:50:43.202Z,99.90
2023-04-21T01:53:10.395Z,99.90
2023-04-21T01:55:37.270Z,99.90
2023-04-21T01:58:04.279Z,99.90
2023-04-21T02:00:31.354Z,99.90
2023-04-21T02:02:58.436Z,99.90
2023-04-21T02:05:25.627Z,99.90
2023-04-21T02:07:52.543Z,99.90
2023-04-21T02:10:19.711Z,99.90
2023-04-21T02:12:46.619Z,99.90
2023-04-21T02:15:13.604Z,99.90
2023-04-21T02:17:40.606Z,99.90
2023-04-21T02:20:08.824Z,99.90
2023-04-21T02:22:35.757Z,99.90
2023-04-21T02:25:02.606Z,99.90
2023-04-21T02:27:29.692Z,99.90
2023-04-21T02:29:56.675Z,99.90
2023-04-21T02:32:25.955Z,99.90
2023-04-21T02:34:53.565Z,99.90
2023-04-21T02:37:21.126Z,99.90
2023-04-21T02:39:48.160Z,99.90
2023-04-21T02:42:15.112Z,99.90
2023-04-21T02:44:43.003Z,99.90
2023-04-21T02:47:10.014Z,99.90
2023-04-21T02:49:42.100Z,99.90
2023-04-21T02:52:09.123Z,99.90
2023-04-21T02:54:36.065Z,99.90
2023-04-21T02:57:03.405Z,99.90
2023-04-21T02:59:30.346Z,99.90
2023-04-21T03:01:57.248Z,99.90
2023-04-21T03:04:25.487Z,99.90
2023-04-21T03:06:53.878Z,99.90
2023-04-21T03:09:21.083Z,99.90
2023-04-21T03:11:48.133Z,99.90
2023-04-21T03:14:15.076Z,99.90
2023-04-21T03:16:42.088Z,99.90
2023-04-21T03:19:09.278Z,99.90
2023-04-21T03:21:39.207Z,99.90
2023-04-21T03:24:07.426Z,99.90
2023-04-21T03:26:34.540Z,99.90
2023-04-21T03:29:01.475Z,99.90
2023-04-21T03:31:28.451Z,99.90
2023-04-21T03:33:55.414Z,99.90
2023-04-21T03:36:22.305Z,99.90
2023-04-21T03:38:49.202Z,99.90
2023-04-21T03:41:16.317Z,99.90
2023-04-21T03:43:43.316Z,99.90
2023-04-21T03:46:21.885Z,99.90
2023-04-21T03:48:49.218Z,99.90
2023-04-21T03:51:16.123Z,99.90
2023-04-21T03:53:43.124Z,99.90
2023-04-21T03:56:10.190Z,99.90
2023-04-21T03:58:37.296Z,99.90
2023-04-21T04:01:07.858Z,99.90
2023-04-21T04:03:35.019Z,99.90
2023-04-21T04:06:04.054Z,99.90
2023-04-21T04:08:31.362Z,99.90
2023-04-21T04:10:58.350Z,99.90
2023-04-21T04:13:26.541Z,99.90
2023-04-21T04:15:53.992Z,99.90
2023-04-21T04:18:21.447Z,99.90
2023-04-21T04:20:48.462Z,99.90
2023-04-21T04:23:15.373Z,99.90
2023-04-21T04:25:42.820Z,99.90
2023-04-21T04:28:10.557Z,99.90
2023-04-21T04:30:37.614Z,99.90
2023-04-21T04:33:05.049Z,99.90
2023-04-21T04:35:32.042Z,99.90
2023-04-21T04:37:59.189Z,99.90
2023-04-21T04:40:26.310Z,99.90
2023-04-21T04:42:53.278Z,99.90
2023-04-21T04:45:22.312Z,99.90
2023-04-21T04:47:50.265Z,99.90
2023-04-21T04:50:17.164Z,99.90
2023-04-21T04:52:46.943Z,99.90
2023-04-21T04:55:14.450Z,99.90
2023-04-21T04:57:41.701Z,99.90
2023-04-21T05:00:11.387Z,99.90
2023-04-21T05:02:39.234Z,99.90
2023-04-21T05:05:08.183Z,99.90
2023-04-21T05:07:35.402Z,99.90
2023-04-21T05:10:04.460Z,99.90
2023-04-21T05:12:34.396Z,99.90
2023-04-21T05:15:01.386Z,99.90
2023-04-21T05:17:30.984Z,99.90
2023-04-21T05:19:58.165Z,99.90
2023-04-21T05:22:26.077Z,99.90
2023-04-21T05:24:54.798Z,99.90
2023-04-21T05:27:21.708Z,99.90
2023-04-21T05:29:48.896Z,99.90
2023-04-21T05:32:15.959Z,99.90
2023-04-21T05:34:42.970Z,99.90
2023-04-21T05:37:12.159Z,99.90
2023-04-21T05:39:39.182Z,99.90
2023-04-21T05:42:06.656Z,99.90
2023-04-21T05:44:33.595Z,99.90
2023-04-21T05:47:00.509Z,99.90
2023-04-21T05:49:27.608Z,99.90
2023-04-21T05:51:54.513Z,99.90
2023-04-21T05:54:21.707Z,99.90
2023-04-21T05:56:48.879Z,99.90
2023-04-21T05:59:16.117Z,99.90
2023-04-21T06:01:43.745Z,99.90
2023-04-21T06:04:11.058Z,99.90
2023-04-21T06:06:38.252Z,99.90
2023-04-21T06:09:05.697Z,99.90
2023-04-21T06:11:33.433Z,99.90
2023-04-21T06:14:01.794Z,99.90
2023-04-21T06:16:29.379Z,99.90
2023-04-21T06:18:58.934Z,99.90
2023-04-21T06:21:25.949Z,99.90
2023-04-21T06:23:52.865Z,99.90
2023-04-21T06:26:19.796Z,99.90
2023-04-21T06:28:46.768Z,99.90
2023-04-21T06:31:16.260Z,99.90
2023-04-21T06:33:43.267Z,99.90
2023-04-21T06:36:10.192Z,99.90
2023-04-21T06:38:37.149Z,99.90
2023-04-21T06:41:04.587Z,99.90
2023-04-21T06:43:31.643Z,99.90
2023-04-21T06:45:58.694Z,99.90
2023-04-21T06:48:26.436Z,99.90
2023-04-21T06:50:53.336Z,99.90
2023-04-21T06:53:21.710Z,99.90
2023-04-21T06:55:49.202Z,99.90
2023-04-21T06:58:16.269Z,99.50
2023-04-21T07:00:43.302Z,99.90
2023-04-21T07:03:10.482Z,99.90
2023-04-21T07:05:37.737Z,99.90
2023-04-21T07:08:04.681Z,99.90
2023-04-21T07:10:31.994Z,99.00
2023-04-21T07:12:59.011Z,99.40
2023-04-21T07:15:26.020Z,99.90
2023-04-21T07:17:53.076Z,99.90
2023-04-21T07:20:20.124Z,99.90
2023-04-21T07:22:47.118Z,99.90
2023-04-21T07:25:14.102Z,99.90
2023-04-21T07:27:41.164Z,99.90
2023-04-21T07:30:08.746Z,98.50
2023-04-21T07:32:37.407Z,98.20
2023-04-21T07:35:06.366Z,98.10
2023-04-21T07:37:33.369Z,97.60
2023-04-21T07:40:00.319Z,97.60
2023-04-21T07:42:27.371Z,97.00
2023-04-21T07:44:55.951Z,96.50
2023-04-21T07:47:23.096Z,96.30
2023-04-21T07:49:50.116Z,97.10
2023-04-21T07:52:17.199Z,96.10
2023-04-21T07:54:44.236Z,96.40
2023-04-21T07:57:11.555Z,96.10
2023-04-21T07:59:38.656Z,96.10
2023-04-21T08:02:05.968Z,95.80
2023-04-21T08:04:33.214Z,96.10
2023-04-21T08:07:00.530Z,96.20
2023-04-21T08:09:28.074Z,95.70
2023-04-21T08:11:55.338Z,96.00
2023-04-21T08:14:22.432Z,96.00
2023-04-21T08:16:49.817Z,95.90
2023-04-21T08:19:16.932Z,95.80
2023-04-21T08:21:44.001Z,95.50
2023-04-21T08:24:10.946Z,95.80
2023-04-21T08:26:37.929Z,95.30
2023-04-21T08:29:07.496Z,95.60
2023-04-21T08:31:34.657Z,95.00
2023-04-21T08:34:03.022Z,94.40
2023-04-21T08:36:44.901Z,93.30
2023-04-21T08:39:11.872Z,92.30
2023-04-21T08:41:42.873Z,92.20
2023-04-21T08:44:11.638Z,92.00
2023-04-21T08:46:39.999Z,92.60
2023-04-21T08:49:10.120Z,92.70
2023-04-21T08:51:37.162Z,91.70
2023-04-21T08:54:04.165Z,91.00
2023-04-21T08:56:31.218Z,90.00
2023-04-21T08:58:58.162Z,86.30
2023-04-21T09:01:25.209Z,87.00
2023-04-21T09:03:52.280Z,83.40
2023-04-21T09:06:19.771Z,81.70
2023-04-21T09:08:57.657Z,81.80
2023-04-21T09:11:25.652Z,81.40
2023-04-21T09:13:57.042Z,83.20
2023-04-21T09:16:23.937Z,81.60
2023-04-21T09:18:51.573Z,80.80
2023-04-21T09:21:19.881Z,80.40
2023-04-21T09:23:49.920Z,76.10
2023-04-21T09:26:19.791Z,76.70
2023-04-21T09:28:48.721Z,74.10
2023-04-21T09:31:19.902Z,76.00
2023-04-21T09:33:58.842Z,78.90
2023-04-21T09:36:32.100Z,79.70
2023-04-21T09:39:29.016Z,80.70
2023-04-21T09:41:49.836Z,78.30
2023-04-21T09:44:18.200Z,76.90
2023-04-21T09:46:52.234Z,78.10
2023-04-21T09:49:24.076Z,79.10
2023-04-21T09:54:30.301Z,69.80
2023-04-21T09:57:04.125Z,66.90
2023-04-21T09:59:38.562Z,68.10
2023-04-21T10:02:08.187Z,63.50
2023-04-21T10:04:38.184Z,64.60
2023-04-21T10:07:06.514Z,66.90
2023-04-21T10:09:49.232Z,68.00
2023-04-21T10:12:17.407Z,68.60
2023-04-21T10:14:44.381Z,66.20
2023-04-21T10:17:11.878Z,69.50
2023-04-21T10:19:50.336Z,68.20
2023-04-21T10:22:32.677Z,68.60
2023-04-21T10:25:04.406Z,68.20
2023-04-21T10:27:40.728Z,68.20
2023-04-21T10:30:20.939Z,65.50
2023-04-21T10:32:48.433Z,65.20
2023-04-21T10:35:22.401Z,65.40
2023-04-21T10:37:51.455Z,60.60
2023-04-21T10:40:43.072Z,60.60
2023-04-21T10:43:47.208Z,62.60
2023-04-21T10:46:41.452Z,62.10
2023-04-21T10:49:21.286Z,60.80
2023-04-21T10:52:03.340Z,59.90
2023-04-21T10:54:45.881Z,61.90
2023-04-21T10:57:19.503Z,61.10
2023-04-21T10:59:48.303Z,58.40
2023-04-21T11:02:17.386Z,56.00
2023-04-21T11:04:48.611Z,56.50
2023-04-21T11:07:23.221Z,55.20
2023-04-21T11:10:02.283Z,53.40
2023-04-21T11:12:32.112Z,52.80
2023-04-21T11:14:59.104Z,54.80
2023-04-21T11:17:26.593Z,54.40
2023-04-21T11:19:56.060Z,54.10
2023-04-21T11:22:27.224Z,55.80
2023-04-21T11:24:56.502Z,50.80
2023-04-21T11:27:26.723Z,49.30
2023-04-21T11:29:53.784Z,51.40
2023-04-21T11:32:21.342Z,49.00
2023-04-21T11:34:48.408Z,47.70
2023-04-21T11:37:34.343Z,46.80
2023-04-21T11:40:01.671Z,46.60
2023-04-21T11:42:29.326Z,47.80
2023-04-21T11:44:57.162Z,47.20
2023-04-21T11:47:28.515Z,48.20
2023-04-21T11:49:58.454Z,47.70
2023-04-21T11:52:32.829Z,47.50
2023-04-21T11:55:12.964Z,48.10
2023-04-21T11:57:41.119Z,49.00
2023-04-21T12:00:15.362Z,48.60
2023-04-21T12:02:44.131Z,49.10
2023-04-21T12:05:13.407Z,49.30
2023-04-21T12:07:48.887Z,47.00
2023-04-21T12:10:19.998Z,47.10
2023-04-21T12:12:47.861Z,46.00
2023-04-21T12:15:22.888Z,47.70
2023-04-21T12:17:54.535Z,48.90
2023-04-21T12:20:26.494Z,46.30
2023-04-21T12:22:53.607Z,45.50
2023-04-21T12:25:20.603Z,46.20
2023-04-21T12:27:58.547Z,47.70
2023-04-21T12:30:25.677Z,47.20
2023-04-21T12:32:54.339Z,45.60
2023-04-21T12:35:22.530Z,44.60
2023-04-21T12:37:49.583Z,45.60
2023-04-21T12:40:16.411Z,45.00
2023-04-21T12:42:43.342Z,43.90
2023-04-21T12:45:10.785Z,44.30
2023-04-21T12:47:37.823Z,45.60
2023-04-21T12:50:05.622Z,42.30
2023-04-21T12:52:32.557Z,41.00
2023-04-21T12:54:59.534Z,40.30
2023-04-21T12:57:26.842Z,43.10
2023-04-21T12:59:53.786Z,43.10
2023-04-21T13:02:20.895Z,43.00
2023-04-21T13:04:48.162Z,43.40
2023-04-21T13:07:16.338Z,42.70
2023-04-21T13:09:43.395Z,43.30
2023-04-21T13:12:10.557Z,43.90
2023-04-21T13:14:37.489Z,44.50
2023-04-21T13:17:04.414Z,45.70
2023-04-21T13:19:31.593Z,45.60
2023-04-21T13:21:58.868Z,46.90
2023-04-21T13:24:26.813Z,46.50
2023-04-21T13:26:53.805Z,47.00
2023-04-21T13:29:20.784Z,46.40
2023-04-21T13:31:47.784Z,46.70
2023-04-21T13:34:14.776Z,46.00
2023-04-21T13:36:41.831Z,44.00
2023-04-21T13:39:12.025Z,44.40
2023-04-21T13:41:39.213Z,45.80
2023-04-21T13:44:06.385Z,44.80
2023-04-21T13:46:33.535Z,43.80
2023-04-21T13:49:00.653Z,42.50
2023-04-21T13:51:27.765Z,43.10
2023-04-21T13:53:54.793Z,46.10
2023-04-21T13:56:22.018Z,46.70
2023-04-21T13:58:49.058Z,46.00
2023-04-21T14:01:16.963Z,45.40
2023-04-21T14:03:45.285Z,46.50
2023-04-21T14:06:12.535Z,46.80
2023-04-21T14:08:39.596Z,46.60
2023-04-21T14:11:06.558Z,46.70
2023-04-21T14:13:39.534Z,47.60
2023-04-21T14:16:11.877Z,48.00
2023-04-21T14:18:44.429Z,48.30
2023-04-21T14:21:14.441Z,47.30
2023-04-21T14:23:41.428Z,46.30
2023-04-21T14:26:08.359Z,46.20
2023-04-21T14:28:35.631Z,46.70
2023-04-21T14:31:02.641Z,46.90
2023-04-21T14:33:30.096Z,46.10
2023-04-21T14:35:57.100Z,45.60
2023-04-21T14:38:24.529Z,45.60
2023-04-21T14:40:54.509Z,45.10
2023-04-21T14:43:22.292Z,45.20
2023-04-21T14:45:49.431Z,45.40
2023-04-21T14:48:16.541Z,44.50
2023-04-21T14:50:43.856Z,45.50
2023-04-21T14:53:11.199Z,44.80
2023-04-21T14:55:38.123Z,43.70
2023-04-21T14:58:05.045Z,44.40
2023-04-21T15:00:32.108Z,44.20
2023-04-21T15:02:59.361Z,43.80
2023-04-21T15:05:26.422Z,44.10
2023-04-21T15:07:53.418Z,45.50
2023-04-21T15:10:20.521Z,45.70
2023-04-21T15:12:47.793Z,43.20
2023-04-21T15:15:14.756Z,44.10
2023-04-21T15:17:41.759Z,45.60
2023-04-21T15:20:10.224Z,44.70
2023-04-21T15:22:37.308Z,44.00
2023-04-21T15:25:04.684Z,42.40
2023-04-21T15:27:31.720Z,42.60
2023-04-21T15:29:58.890Z,41.50
2023-04-21T15:32:26.269Z,41.40
2023-04-21T15:34:53.338Z,41.00
2023-04-21T15:37:24.180Z,42.20
2023-04-21T15:39:52.013Z,41.00
2023-04-21T15:42:18.907Z,41.70
2023-04-21T15:44:47.196Z,40.90
2023-04-21T15:47:16.552Z,41.00
2023-04-21T15:49:43.857Z,41.00
2023-04-21T15:52:11.343Z,40.60
2023-04-21T15:54:38.600Z,41.00
2023-04-21T15:57:05.882Z,41.50
2023-04-21T15:59:33.007Z,42.30
2023-04-21T16:02:00.888Z,42.90
2023-04-21T16:04:28.521Z,42.20
2023-04-21T16:06:56.097Z,44.00
2023-04-21T16:09:23.652Z,42.10
2023-04-21T16:11:51.444Z,40.80
2023-04-21T16:14:19.150Z,42.00
2023-04-21T16:16:46.411Z,43.10
2023-04-21T16:19:13.693Z,43.30
2023-04-21T16:21:40.981Z,43.20
2023-04-21T16:24:08.936Z,43.90
2023-04-21T16:26:36.841Z,43.70
2023-04-21T16:29:04.026Z,43.90
2023-04-21T16:31:31.580Z,43.80
2023-04-21T16:34:00.454Z,44.20
2023-04-21T16:36:28.879Z,44.00
2023-04-21T16:38:56.419Z,44.80
2023-04-21T16:41:23.639Z,44.80
2023-04-21T16:43:50.804Z,45.20
2023-04-21T16:46:18.377Z,45.20
2023-04-21T16:48:46.177Z,45.90
2023-04-21T16:51:13.281Z,45.30
2023-04-21T16:53:42.185Z,45.30
2023-04-21T16:56:09.601Z,45.50
2023-04-21T16:58:37.750Z,45.30
2023-04-21T17:01:07.428Z,45.20
2023-04-21T17:03:34.842Z,45.30
2023-04-21T17:06:04.565Z,45.60
2023-04-21T17:08:31.486Z,46.10
2023-04-21T17:10:59.995Z,45.70
2023-04-21T17:13:27.124Z,46.70
2023-04-21T17:15:54.011Z,47.00
2023-04-21T17:18:20.991Z,47.00
2023-04-21T17:20:47.910Z,47.70
2023-04-21T17:23:15.039Z,49.00
2023-04-21T17:25:41.928Z,49.20
2023-04-21T17:28:08.847Z,50.60
2023-04-21T17:30:36.316Z,51.30
2023-04-21T17:33:15.501Z,52.10
2023-04-21T17:36:01.791Z,52.30
2023-04-21T17:38:30.079Z,53.10
2023-04-21T17:40:57.001Z,52.60
2023-04-21T17:43:24.418Z,53.20
2023-04-21T17:45:52.361Z,54.00
2023-04-21T17:48:20.119Z,54.10
2023-04-21T17:50:47.055Z,55.00
2023-04-21T17:53:14.014Z,56.20
2023-04-21T17:55:40.966Z,56.90
2023-04-21T17:58:10.811Z,57.70
2023-04-21T18:00:39.157Z,57.00
2023-04-21T18:03:06.642Z,57.60
2023-04-21T18:05:34.320Z,57.70
2023-04-21T18:08:02.064Z,57.70
2023-04-21T18:10:30.005Z,59.10
2023-04-21T18:12:57.923Z,59.30
2023-04-21T18:15:25.265Z,57.50
2023-04-21T18:17:53.137Z,58.00
2023-04-21T18:20:20.840Z,59.20
2023-04-21T18:22:49.073Z,59.40
2023-04-21T18:25:20.232Z,59.50
2023-04-21T18:27:51.530Z,59.40
2023-04-21T18:30:18.538Z,60.00
2023-04-21T18:32:45.572Z,61.60
2023-04-21T18:35:12.535Z,59.90
2023-04-21T18:37:39.402Z,59.80
2023-04-21T18:40:07.359Z,60.00
2023-04-21T18:42:34.351Z,60.30
2023-04-21T18:45:04.246Z,61.00
2023-04-21T18:47:31.877Z,61.50
2023-04-21T18:49:58.846Z,62.60
2023-04-21T18:52:25.845Z,62.50
2023-04-21T18:54:52.776Z,63.40
2023-04-21T18:57:19.754Z,63.20
2023-04-21T18:59:46.671Z,63.70
2023-04-21T19:02:14.148Z,64.00
2023-04-21T19:04:43.633Z,66.00
2023-04-21T19:07:11.445Z,65.80
2023-04-21T19:09:38.627Z,66.40
2023-04-21T19:12:05.734Z,68.30
2023-04-21T19:14:42.388Z,65.60
2023-04-21T19:17:13.003Z,65.40
2023-04-21T19:19:39.899Z,65.40
2023-04-21T19:22:06.831Z,66.80
2023-04-21T19:24:33.920Z,66.80
2023-04-21T19:27:06.022Z,66.60
2023-04-21T19:29:33.396Z,66.70
2023-04-21T19:32:00.455Z,67.40
2023-04-21T19:34:27.476Z,68.50
2023-04-21T19:36:54.636Z,69.30
2023-04-21T19:39:21.655Z,69.20
2023-04-21T19:41:48.626Z,70.60
2023-04-21T19:44:15.535Z,70.40
2023-04-21T19:46:43.082Z,69.80
2023-04-21T19:49:14.156Z,70.00
2023-04-21T19:51:41.449Z,69.60
2023-04-21T19:54:11.862Z,70.20
2023-04-21T19:56:40.275Z,69.30
2023-04-21T19:59:07.545Z,70.70
2023-04-21T20:01:34.769Z,69.10
2023-04-21T20:04:03.236Z,70.00
2023-04-21T20:06:31.609Z,70.00
2023-04-21T20:08:58.629Z,70.90
2023-04-21T20:11:28.786Z,72.00
2023-04-21T20:13:56.151Z,71.20
2023-04-21T20:16:23.812Z,72.00
2023-04-21T20:18:50.882Z,71.90
2023-04-21T20:21:17.817Z,73.80
2023-04-21T20:23:44.828Z,72.70
2023-04-21T20:26:12.261Z,72.40
2023-04-21T20:28:39.375Z,73.70
2023-04-21T20:31:06.360Z,72.90
2023-04-21T20:33:33.388Z,73.70
2023-04-21T20:36:07.277Z,73.00
2023-04-21T20:38:35.527Z,73.20
2023-04-21T20:41:03.468Z,73.80
2023-04-21T20:43:33.169Z,74.20
2023-04-21T20:46:04.318Z,76.20
2023-04-21T20:48:31.423Z,75.10
2023-04-21T20:50:58.451Z,75.50
2023-04-21T20:53:26.072Z,77.70
2023-04-21T20:55:53.387Z,77.70
2023-04-21T20:58:20.450Z,78.00
2023-04-21T21:00:47.529Z,76.80
2023-04-21T21:03:14.984Z,78.10
2023-04-21T21:05:43.744Z,78.10
2023-04-21T21:08:10.801Z,80.20
2023-04-21T21:10:37.743Z,81.20
2023-04-21T21:13:05.271Z,80.60
2023-04-21T21:15:32.251Z,81.70
2023-04-21T21:17:59.881Z,83.80
2023-04-21T21:20:27.644Z,83.10
2023-04-21T21:22:54.591Z,82.10
2023-04-21T21:25:21.554Z,82.50
2023-04-21T21:27:48.573Z,85.20
2023-04-21T21:30:15.626Z,85.50
2023-04-21T21:32:42.586Z,85.10
2023-04-21T21:35:10.326Z,85.00
2023-04-21T21:37:38.018Z,84.30
2023-04-21T21:40:06.219Z,87.00
2023-04-21T21:42:33.151Z,84.80
2023-04-21T21:45:00.967Z,84.60
2023-04-21T21:47:28.408Z,86.40
2023-04-21T21:49:57.748Z,84.40
2023-04-21T21:52:24.975Z,85.80
2023-04-21T21:54:52.697Z,87.20
2023-04-21T21:57:19.623Z,86.40
2023-04-21T21:59:47.095Z,86.60
2023-04-21T22:02:14.899Z,86.30
2023-04-21T22:04:42.942Z,87.20
2023-04-21T22:07:09.947Z,84.50
2023-04-21T22:09:38.334Z,86.70
2023-04-21T22:12:07.216Z,87.50
2023-04-21T22:14:34.520Z,85.70
2023-04-21T22:17:02.799Z,87.30
2023-04-21T22:19:30.974Z,87.50
2023-04-21T22:21:57.927Z,88.30
2023-04-21T22:24:25.012Z,87.00
2023-04-21T22:26:52.157Z,88.10
2023-04-21T22:29:19.297Z,88.40
2023-04-21T22:31:47.000Z,86.10
2023-04-21T22:34:16.624Z,85.90
2023-04-21T22:36:43.639Z,88.10
2023-04-21T22:39:10.925Z,89.10
2023-04-21T22:41:38.989Z,86.90
2023-04-21T22:44:05.959Z,89.00
2023-04-21T22:46:33.709Z,89.80
2023-04-21T22:49:03.219Z,90.10
2023-04-21T22:51:32.201Z,90.00
2023-04-21T22:54:00.333Z,90.40
2023-04-21T22:56:28.401Z,91.00
2023-04-21T22:58:55.651Z,90.50
2023-04-21T23:01:22.829Z,89.80
2023-04-21T23:03:50.111Z,90.00
2023-04-21T23:06:17.127Z,90.10
2023-04-21T23:08:44.116Z,90.80
2023-04-21T23:11:11.194Z,91.40
2023-04-21T23:13:38.368Z,91.50
2023-04-21T23:16:05.723Z,91.40
2023-04-21T23:18:32.898Z,91.60
2023-04-21T23:20:59.823Z,92.10
2023-04-21T23:23:26.758Z,91.70
2023-04-21T23:25:53.698Z,91.90
2023-04-21T23:28:20.610Z,92.10
2023-04-21T23:30:47.769Z,92.70
2023-04-21T23:33:14.828Z,92.80
2023-04-21T23:35:41.966Z,92.90
2023-04-21T23:38:08.892Z,93.20
2023-04-21T23:40:35.896Z,94.10
2023-04-21T23:43:02.878Z,93.90
2023-04-21T23:45:30.090Z,93.30
2023-04-21T23:47:57.099Z,93.50
2023-04-21T23:50:24.285Z,93.60
2023-04-21T23:52:51.287Z,93.60
2023-04-21T23:55:18.495Z,93.80
2023-04-21T23:57:46.788Z,94.10
